Time;durP1;ratioP1;P1;durP2;ratioP2;P2;SDS_P1;SDS_P2;PMS_P1;PMS_P2;Temp;Humidity;BMP_temperature;BMP_pressure;BME280_temperature;BME280_humidity;BME280_pressure;Samples;Min_cycle;Max_cycle;Signal;HPM_P1;HPM_P2
2022/10/14 00:00:18;;;;;;;15.20;12.97;;;;;;;12.19;100.00;96627.06;5027557;28;102413;-61
2022/10/14 00:02:45;;;;;;;18.13;14.00;;;;;;;12.17;100.00;96623.88;5030541;28;105507;-61
2022/10/14 00:05:13;;;;;;;14.87;13.33;;;;;;;12.19;100.00;96624.41;5027385;28;102237;-61
2022/10/14 00:07:40;;;;;;;18.13;14.13;;;;;;;12.15;100.00;96629.44;5027390;28;106552;-61
2022/10/14 00:10:08;;;;;;;17.63;13.00;;;;;;;12.14;100.00;96624.38;5026910;28;105697;-61
2022/10/14 00:12:37;;;;;;;17.50;14.27;;;;;;;12.14;100.00;96624.38;5027185;28;102018;-61
2022/10/14 00:15:04;;;;;;;18.23;12.37;;;;;;;12.15;100.00;96626.78;5028705;27;102587;-61
2022/10/14 00:17:31;;;;;;;13.80;11.67;;;;;;;12.13;100.00;96623.56;5030182;28;105543;-61
2022/10/14 00:19:59;;;;;;;14.27;11.50;;;;;;;12.18;100.00;96628.13;5030907;28;102048;-61
2022/10/14 00:22:26;;;;;;;15.27;11.27;;;;;;;12.21;100.00;96619.63;5030762;28;104751;-61
2022/10/14 00:24:53;;;;;;;12.20;10.50;;;;;;;12.27;100.00;96618.63;5033424;28;104059;-61
2022/10/14 00:27:20;;;;;;;13.67;11.00;;;;;;;12.25;100.00;96605.53;5030617;28;104996;-61
2022/10/14 00:29:48;;;;;;;12.37;10.13;;;;;;;12.29;100.00;96611.16;5030238;28;105524;-61
2022/10/14 00:32:16;;;;;;;11.57;9.97;;;;;;;12.28;100.00;96610.38;5030794;28;101914;-61
2022/10/14 00:34:44;;;;;;;10.20;9.10;;;;;;;12.27;100.00;96602.63;5030329;28;105227;-61
2022/10/14 00:37:11;;;;;;;11.83;9.43;;;;;;;12.29;100.00;96597.81;5031111;28;105444;-61
2022/10/14 00:39:38;;;;;;;9.03;8.20;;;;;;;12.33;100.00;96588.25;5031242;28;101852;-61
2022/10/14 00:42:05;;;;;;;9.63;8.40;;;;;;;12.32;100.00;96592.00;5031577;28;105166;-61
2022/10/14 00:45:12;;;;;;;10.20;7.80;;;;;;;12.31;100.00;96585.06;5030746;28;105624;-61
2022/10/14 00:47:42;;;;;;;9.03;8.23;;;;;;;12.31;100.00;96587.72;5028067;28;101863;-61
2022/10/14 00:50:12;;;;;;;8.97;7.43;;;;;;;12.31;100.00;96588.50;5030576;28;104122;-61
2022/10/14 00:52:39;;;;;;;10.57;7.67;;;;;;;12.33;100.00;96585.59;5031301;28;101947;-61
2022/10/14 00:55:12;;;;;;;9.30;8.30;;;;;;;12.34;100.00;96582.69;5030808;28;104791;-61
2022/10/14 00:57:40;;;;;;;9.00;8.10;;;;;;;12.30;100.00;96584.25;5032330;28;102688;-61
2022/10/14 01:00:12;;;;;;;8.43;7.60;;;;;;;12.31;100.00;96577.84;5031298;28;101926;-61
2022/10/14 01:02:40;;;;;;;8.87;8.07;;;;;;;12.32;100.00;96573.31;5030985;28;105634;-61
2022/10/14 01:05:11;;;;;;;9.07;7.20;;;;;;;12.32;100.00;96586.66;5030618;28;105059;-61
2022/10/14 01:07:59;;;;;;;9.50;7.83;;;;;;;12.17;100.00;96583.88;5031045;28;101897;-61
2022/10/14 01:10:33;;;;;;;9.03;7.10;;;;;;;12.20;100.00;96576.16;5033935;28;105078;-61
2022/10/14 01:13:13;;;;;;;8.20;7.13;;;;;;;12.21;100.00;96582.31;5030920;28;101989;-61
2022/10/14 01:15:51;;;;;;;7.77;7.07;;;;;;;12.19;100.00;96579.06;5030848;28;104769;-61
2022/10/14 01:18:30;;;;;;;10.77;7.73;;;;;;;12.12;100.00;96581.97;5030368;28;105864;-61
2022/10/14 01:21:07;;;;;;;10.33;7.30;;;;;;;12.06;100.00;96582.19;5030701;28;101882;-61
2022/10/14 01:23:46;;;;;;;7.57;6.80;;;;;;;12.08;100.00;96578.22;5030591;28;105343;-61
2022/10/14 01:26:29;;;;;;;7.63;6.83;;;;;;;12.01;100.00;96572.31;5029953;27;105388;-61
2022/10/14 01:29:13;;;;;;;10.13;7.97;;;;;;;11.99;100.00;96574.41;5032417;28;101750;-61
2022/10/14 01:31:45;;;;;;;7.83;6.97;;;;;;;11.93;100.00;96574.63;5030636;28;105241;-61
2022/10/14 01:34:18;;;;;;;7.37;6.10;;;;;;;12.00;100.00;96569.88;5033555;28;105392;-61
2022/10/14 01:36:50;;;;;;;6.70;6.00;;;;;;;12.11;100.00;96567.03;5030650;28;105266;-61
2022/10/14 01:39:22;;;;;;;7.13;6.33;;;;;;;12.17;100.00;96567.88;5029928;28;105554;-61
2022/10/14 01:41:55;;;;;;;6.93;6.33;;;;;;;12.17;100.00;96566.03;5030668;28;101898;-61
2022/10/14 01:44:24;;;;;;;8.77;6.40;;;;;;;12.14;100.00;96571.03;5030707;28;104429;-61
2022/10/14 01:46:55;;;;;;;9.07;6.37;;;;;;;12.15;100.00;96578.00;5029543;28;105586;-61
2022/10/14 01:49:29;;;;;;;8.17;6.13;;;;;;;12.17;100.00;96582.03;5030407;28;101818;-61
2022/10/14 01:52:02;;;;;;;6.97;6.23;;;;;;;12.22;100.00;96567.91;5030361;28;104101;-61
2022/10/14 01:54:33;;;;;;;7.00;6.20;;;;;;;12.27;100.00;96565.28;5029313;28;105482;-61
2022/10/14 01:57:04;;;;;;;7.30;6.57;;;;;;;12.31;100.00;96561.06;5033982;28;101821;-61
2022/10/14 01:59:34;;;;;;;7.50;6.63;;;;;;;12.27;100.00;96559.97;5029802;28;105598;-61
2022/10/14 02:02:02;;;;;;;8.07;7.27;;;;;;;12.21;100.00;96555.66;5030285;28;101953;-61
2022/10/14 02:04:29;;;;;;;12.07;7.63;;;;;;;12.15;100.00;96568.13;5030226;28;105156;-61
2022/10/14 02:07:08;;;;;;;9.03;7.50;;;;;;;12.10;100.00;96575.31;5029387;28;104339;-61
2022/10/14 02:09:43;;;;;;;10.60;7.93;;;;;;;12.12;100.00;96567.84;5031788;28;101707;-61
2022/10/14 02:12:23;;;;;;;7.90;7.10;;;;;;;12.14;100.00;96560.38;5031904;27;102742;-61
2022/10/14 02:15:01;;;;;;;8.40;7.60;;;;;;;12.14;100.00;96566.53;5029395;28;105303;-61
2022/10/14 02:17:34;;;;;;;9.67;7.83;;;;;;;12.04;100.00;96592.31;5033595;28;102010;-61
2022/10/14 02:20:05;;;;;;;10.90;8.37;;;;;;;11.93;100.00;96601.28;5029529;28;105741;-61
2022/10/14 02:22:35;;;;;;;14.50;11.87;;;;;;;11.80;100.00;96599.81;5029854;28;101925;-61
2022/10/14 02:25:11;;;;;;;12.77;11.27;;;;;;;11.86;100.00;96606.00;5028853;28;103708;-61
2022/10/14 02:27:42;;;;;;;12.20;10.83;;;;;;;11.85;100.00;96615.88;5029820;27;102553;-61
2022/10/14 02:30:12;;;;;;;12.80;11.50;;;;;;;11.86;100.00;96606.81;5028985;28;101813;-61
2022/10/14 02:32:42;;;;;;;10.67;9.53;;;;;;;11.83;100.00;96620.63;5030280;28;102304;-61
2022/10/14 02:35:15;;;;;;;10.67;8.27;;;;;;;11.87;100.00;96607.59;5028973;28;105984;-61
2022/10/14 02:37:43;;;;;;;10.97;7.23;;;;;;;11.88;100.00;96606.56;5029724;27;102179;-61
2022/10/14 02:40:15;;;;;;;7.40;6.53;;;;;;;11.89;100.00;96600.97;5031894;28;105509;-61
2022/10/14 02:42:42;;;;;;;7.73;6.03;;;;;;;11.87;100.00;96605.75;5031313;28;101684;-61
2022/10/14 02:45:12;;;;;;;6.70;5.13;;;;;;;11.89;100.00;96605.50;5029660;28;105392;-61
2022/10/14 02:47:40;;;;;;;8.20;5.33;;;;;;;11.92;100.00;96602.31;5028695;28;104848;-61
2022/10/14 02:50:09;;;;;;;5.93;4.90;;;;;;;11.93;100.00;96607.41;5029414;28;101850;-61
2022/10/14 02:52:36;;;;;;;7.83;5.23;;;;;;;11.94;100.00;96608.22;5029466;28;105530;-62
2022/10/14 02:55:04;;;;;;;4.77;3.90;;;;;;;11.91;100.00;96608.72;5011881;28;105182;-61
2022/10/14 02:57:31;;;;;;;5.37;3.97;;;;;;;11.89;100.00;96606.28;5029420;28;102254;-61
2022/10/14 02:59:58;;;;;;;4.77;3.67;;;;;;;11.91;100.00;96606.03;5029111;28;105195;-61
2022/10/14 03:02:25;;;;;;;4.33;3.93;;;;;;;11.90;100.00;96609.75;5032280;28;105482;-61
2022/10/14 03:04:54;;;;;;;4.33;3.93;;;;;;;11.91;100.00;96598.88;5029195;28;105110;-61
2022/10/14 03:07:21;;;;;;;4.70;4.20;;;;;;;11.90;100.00;96599.09;5028545;28;105430;-61
2022/10/14 03:09:51;;;;;;;6.00;4.00;;;;;;;11.91;100.00;96598.03;5029112;28;101885;-61
2022/10/14 03:12:19;;;;;;;5.97;4.80;;;;;;;11.89;100.00;96611.63;5029247;28;104971;-61
2022/10/14 03:14:46;;;;;;;4.53;3.70;;;;;;;11.82;100.00;96600.38;5028248;28;105800;-61
2022/10/14 03:17:16;;;;;;;5.10;4.10;;;;;;;11.83;100.00;96607.31;5029021;28;101938;-61
2022/10/14 03:19:43;;;;;;;5.33;4.30;;;;;;;11.82;100.00;96611.03;5029117;28;104921;-61
2022/10/14 03:22:14;;;;;;;6.77;4.73;;;;;;;11.82;100.00;96607.56;5028422;28;105607;-61
2022/10/14 03:24:42;;;;;;;4.67;4.27;;;;;;;11.79;100.00;96602.75;5032324;28;101828;-61
2022/10/14 03:27:27;;;;;;;5.93;4.77;;;;;;;11.81;100.00;96605.94;5028463;28;105248;-61
2022/10/14 03:30:00;;;;;;;5.97;4.63;;;;;;;11.80;100.00;96607.00;5029213;28;101883;-61
2022/10/14 03:32:27;;;;;;;4.83;4.30;;;;;;;11.79;100.00;96611.56;5028955;28;105390;-61
2022/10/14 03:35:12;;;;;;;5.90;4.40;;;;;;;11.80;100.00;96607.81;5026653;28;102356;-61
2022/10/14 03:37:45;;;;;;;5.07;4.67;;;;;;;11.79;100.00;96611.56;5028904;28;101765;-61
2022/10/14 03:40:13;;;;;;;5.17;4.53;;;;;;;11.77;100.00;96613.63;5028431;28;104691;-61
2022/10/14 03:42:41;;;;;;;5.83;4.50;;;;;;;11.77;100.00;96607.53;5028103;28;105449;-62
2022/10/14 03:45:09;;;;;;;4.97;4.40;;;;;;;11.78;100.00;96603.81;5028479;28;101973;-61
2022/10/14 03:47:37;;;;;;;5.43;4.07;;;;;;;11.74;100.00;96603.50;5031395;28;104987;-61
2022/10/14 03:50:06;;;;;;;4.50;4.10;;;;;;;11.78;100.00;96603.81;5030180;28;101924;-61
2022/10/14 03:52:55;;;;;;;5.50;3.80;;;;;;;11.80;100.00;96597.16;5033001;28;103885;-61
2022/10/14 03:55:28;;;;;;;5.83;3.80;;;;;;;11.79;100.00;96605.41;5032018;28;107623;-61
2022/10/14 03:57:55;;;;;;;4.47;3.53;;;;;;;11.78;100.00;96601.13;5032221;28;101900;-61
2022/10/14 04:00:23;;;;;;;4.40;4.00;;;;;;;11.79;100.00;96597.41;5032231;28;104999;-61
2022/10/14 04:03:01;;;;;;;3.83;3.53;;;;;;;11.79;100.00;96594.75;5031295;28;105616;-61
2022/10/14 04:05:36;;;;;;;3.83;3.30;;;;;;;11.75;100.00;96597.13;5032182;28;101962;-61
2022/10/14 04:08:11;;;;;;;3.40;3.10;;;;;;;11.75;100.00;96588.31;5032171;28;103545;-61
2022/10/14 04:10:42;;;;;;;3.47;3.17;;;;;;;11.74;100.00;96586.69;5034803;28;101794;-61
2022/10/14 04:13:13;;;;;;;3.53;3.07;;;;;;;11.73;100.00;96590.44;5032107;28;104954;-61
2022/10/14 04:15:40;;;;;;;4.13;3.17;;;;;;;11.75;100.00;96588.31;5031004;28;105658;-61
2022/10/14 04:18:16;;;;;;;3.50;3.20;;;;;;;11.74;100.00;96587.53;5031947;28;101882;-61
2022/10/14 04:20:44;;;;;;;4.10;2.90;;;;;;;11.77;100.00;96591.53;5031888;28;105210;-61
2022/10/14 04:23:15;;;;;;;3.73;2.90;;;;;;;11.79;100.00;96590.22;5031140;28;105047;-61
2022/10/14 04:25:45;;;;;;;2.93;2.73;;;;;;;11.75;100.00;96588.31;5031674;28;101873;-61
2022/10/14 04:28:13;;;;;;;5.57;2.90;;;;;;;11.77;100.00;96580.88;5031618;28;105348;-61
2022/10/14 04:30:49;;;;;;;3.33;3.03;;;;;;;11.77;100.00;96583.53;5034754;28;105321;-61
2022/10/14 04:33:22;;;;;;;4.13;3.00;;;;;;;11.73;100.00;96579.78;5031683;28;104935;-61
2022/10/14 04:35:50;;;;;;;3.27;2.97;;;;;;;11.72;100.00;96584.28;5030795;28;105369;-61
2022/10/14 04:38:29;;;;;;;3.20;3.00;;;;;;;11.72;100.00;96578.94;5031623;28;101912;-61
2022/10/14 04:41:01;;;;;;;3.03;2.83;;;;;;;11.71;100.00;96579.19;5031516;28;104691;-61
2022/10/14 04:43:30;;;;;;;3.27;2.97;;;;;;;11.76;100.00;96576.59;5014191;28;104695;-61
2022/10/14 04:46:04;;;;;;;3.17;2.80;;;;;;;11.75;100.00;96580.31;5031264;28;101933;-61
2022/10/14 04:48:31;;;;;;;3.93;3.03;;;;;;;11.77;100.00;96572.88;5031358;28;104879;-61
2022/10/14 04:51:00;;;;;;;4.87;3.10;;;;;;;11.81;100.00;96571.31;5030708;28;105001;-61
2022/10/14 04:53:49;;;;;;;3.50;3.20;;;;;;;11.82;100.00;96564.94;5034479;28;101996;-61
2022/10/14 04:56:52;;;;;;;3.93;3.20;;;;;;;11.85;100.00;96561.75;5030435;28;105482;-61
2022/10/14 04:59:20;;;;;;;3.40;3.10;;;;;;;11.84;100.00;96558.28;5031538;28;101869;-61
2022/10/14 05:01:55;;;;;;;3.60;3.30;;;;;;;11.81;100.00;96550.81;5030938;28;105231;-62
2022/10/14 05:04:29;;;;;;;3.90;3.60;;;;;;;11.83;100.00;96553.22;5030864;28;105555;-61
2022/10/14 05:07:05;;;;;;;4.90;4.00;;;;;;;11.84;100.00;96560.16;5031269;28;101890;-61
2022/10/14 05:09:33;;;;;;;3.97;3.40;;;;;;;11.82;100.00;96551.63;5031436;28;105597;-61
2022/10/14 05:12:01;;;;;;;5.27;3.57;;;;;;;11.80;100.00;96548.38;5030845;28;104850;-61
2022/10/14 05:14:39;;;;;;;3.73;3.40;;;;;;;11.81;100.00;96547.31;5031368;28;101807;-61
2022/10/14 05:17:27;;;;;;;3.70;3.40;;;;;;;11.83;100.00;96537.22;5034146;28;104893;-61
2022/10/14 05:19:54;;;;;;;4.07;3.10;;;;;;;11.77;100.00;96539.03;5031288;28;101986;-61
2022/10/14 05:25:48;;;;;;;3.73;3.43;;;;;;;11.81;100.00;96524.16;5030569;28;105962;-61
2022/10/14 05:28:16;;;;;;;4.57;4.13;;;;;;;11.82;100.00;96519.66;5030973;28;101914;-61
2022/10/14 05:30:44;;;;;;;4.43;3.67;;;;;;;11.82;100.00;96517.75;5031017;28;104877;-61
2022/10/14 05:33:12;;;;;;;5.97;4.00;;;;;;;11.83;100.00;96523.91;5030461;28;104413;-61
2022/10/14 05:35:41;;;;;;;4.37;3.97;;;;;;;11.82;100.00;96520.44;5031044;28;102044;-61
2022/10/14 05:38:08;;;;;;;4.10;3.70;;;;;;;11.84;100.00;96520.19;5030618;28;104979;-61
2022/10/14 05:40:39;;;;;;;3.70;3.27;;;;;;;11.87;100.00;96522.31;5033455;28;104661;-61
2022/10/14 05:43:09;;;;;;;3.90;3.60;;;;;;;11.86;100.00;96521.53;5030802;28;105294;-61
2022/10/14 05:45:40;;;;;;;4.00;3.70;;;;;;;11.86;100.00;96515.38;5029823;28;105399;-61
2022/10/14 05:48:08;;;;;;;4.97;3.67;;;;;;;11.83;100.00;96519.38;5030619;28;102079;-61
2022/10/14 05:50:47;;;;;;;4.23;3.90;;;;;;;11.88;100.00;96519.41;5030526;28;106017;-61
2022/10/14 05:53:18;;;;;;;4.37;4.07;;;;;;;11.89;100.00;96520.22;5029628;28;105565;-61
2022/10/14 05:55:49;;;;;;;4.23;3.80;;;;;;;11.85;100.00;96525.25;5030772;28;102048;-61
2022/10/14 05:58:21;;;;;;;4.13;3.83;;;;;;;11.81;100.00;96521.50;5030470;28;103929;-61
2022/10/14 06:00:49;;;;;;;5.37;4.07;;;;;;;11.90;100.00;96514.66;5029741;28;105090;-61
2022/10/14 06:03:19;;;;;;;8.00;3.97;;;;;;;11.92;100.00;96511.72;5034031;28;101999;-61
2022/10/14 06:05:46;;;;;;;4.03;3.67;;;;;;;12.00;100.00;96517.38;5029741;28;105756;-61
2022/10/14 06:08:13;;;;;;;5.13;3.80;;;;;;;12.06;100.00;96515.56;5030412;28;102127;-61
2022/10/14 06:10:40;;;;;;;4.43;3.50;;;;;;;12.12;100.00;96512.69;5030462;28;105556;-61
2022/10/14 06:13:07;;;;;;;4.50;3.40;;;;;;;12.14;100.00;96517.72;5028619;27;105371;-61
2022/10/14 06:15:38;;;;;;;3.80;3.50;;;;;;;12.17;100.00;96527.88;5030239;28;101894;-61
2022/10/14 06:18:06;;;;;;;3.90;3.47;;;;;;;12.17;100.00;96518.03;5030402;28;103743;-61
2022/10/14 06:21:00;;;;;;;4.63;3.70;;;;;;;12.27;100.00;96510.09;5029454;28;105112;-61
2022/10/14 06:23:27;;;;;;;4.03;3.63;;;;;;;12.29;100.00;96509.84;5033365;28;101942;-61
2022/10/14 06:25:54;;;;;;;8.60;6.33;;;;;;;12.27;100.00;96509.28;5029325;28;106033;-61
2022/10/14 06:28:22;;;;;;;6.20;4.97;;;;;;;12.31;100.00;96510.41;5029472;28;101928;-61
2022/10/14 06:30:54;;;;;;;8.80;7.90;;;;;;;12.33;100.00;96511.72;5031387;28;102410;-61
2022/10/14 06:33:22;;;;;;;5.67;4.80;;;;;;;12.56;100.00;96516.66;5029247;28;105830;-61
2022/10/14 06:35:49;;;;;;;5.13;4.60;;;;;;;12.78;100.00;96519.16;5029749;28;101979;-61
2022/10/14 06:38:17;;;;;;;7.87;6.90;;;;;;;12.85;100.00;96512.53;5029700;28;104705;-61
2022/10/14 06:40:44;;;;;;;4.53;4.13;;;;;;;13.00;100.00;96507.28;5028835;28;105862;-61
2022/10/14 06:43:11;;;;;;;2.93;2.70;;;;;;;13.09;100.00;96495.00;5029408;28;102370;-61
2022/10/14 06:45:38;;;;;;;3.00;2.70;;;;;;;13.05;100.00;96499.28;5033820;28;102800;-61
2022/10/14 06:48:07;;;;;;;3.87;3.20;;;;;;;12.92;100.00;96502.38;5029188;28;101969;-61
2022/10/14 06:50:40;;;;;;;6.77;5.43;;;;;;;13.06;100.00;96510.75;5028654;28;102385;-61
2022/10/14 06:53:08;;;;;;;3.40;3.10;;;;;;;12.90;100.00;96501.03;5028123;28;103094;-62
2022/10/14 06:55:35;;;;;;;5.57;5.07;;;;;;;12.90;100.00;96495.72;5029746;28;102155;-61
2022/10/14 06:58:02;;;;;;;4.00;2.77;;;;;;;12.86;100.00;96510.66;5029802;28;103482;-62
2022/10/14 07:00:29;;;;;;;5.87;5.27;;;;;;;13.09;100.00;96510.22;5030307;27;103079;-62
2022/10/14 07:02:58;;;;;;;6.57;4.93;;;;;;;13.27;100.00;96504.41;5031089;28;101849;-62
2022/10/14 07:05:27;;;;;;;2.00;1.90;;;;;;;13.30;100.00;96501.22;5030603;28;102875;-62
2022/10/14 07:08:05;;;;;;;4.70;4.30;;;;;;;13.37;100.00;96504.41;5032301;28;105843;-61
2022/10/14 07:10:32;;;;;;;5.43;4.87;;;;;;;13.45;100.00;96499.34;5029223;28;105170;-61
2022/10/14 07:12:59;;;;;;;4.13;3.73;;;;;;;13.39;100.00;96500.41;5030410;28;103193;-61
2022/10/14 07:15:26;;;;;;;5.63;5.20;;;;;;;13.39;100.00;96495.06;5029301;28;101969;-61
2022/10/14 07:18:04;;;;;;;2.13;2.03;;;;;;;13.39;100.00;96496.94;5029373;28;104716;-61
2022/10/14 07:20:38;;;;;;;2.47;2.27;;;;;;;13.34;100.00;96496.91;5028760;28;105461;-61
2022/10/14 07:23:05;;;;;;;3.97;3.67;;;;;;;13.40;100.00;96491.34;5042642;27;102073;-61
2022/10/14 07:25:33;;;;;;;2.63;2.30;;;;;;;13.57;100.00;96496.44;5026431;28;105228;-61
2022/10/14 07:31:22;;;;;;;2.57;2.10;;;;;;;13.71;100.00;96487.63;5032731;28;102048;-61
2022/10/14 07:33:50;;;;;;;1.60;1.50;;;;;;;13.68;100.00;96474.78;5030171;28;102608;-62
2022/10/14 07:36:28;;;;;;;3.30;1.80;;;;;;;13.72;100.00;96475.84;5028978;28;102015;-60
2022/10/14 07:38:56;;;;;;;4.13;1.90;;;;;;;13.80;100.00;96477.97;5030591;28;102379;-61
2022/10/14 07:41:24;;;;;;;2.20;2.00;;;;;;;14.00;100.00;96475.31;5028309;28;105299;-62
2022/10/14 07:43:54;;;;;;;1.47;1.37;;;;;;;14.18;100.00;96476.63;5029227;28;101984;-62
2022/10/14 07:46:31;;;;;;;4.20;3.87;;;;;;;14.48;100.00;96477.38;5030162;28;102748;-61
2022/10/14 07:48:59;;;;;;;3.70;3.40;;;;;;;14.39;100.00;96473.66;5028210;28;106009;-61
2022/10/14 07:51:58;;;;;;;1.70;1.60;;;;;;;14.21;100.00;96462.72;5030008;28;101944;-61
2022/10/14 07:54:28;;;;;;;1.57;1.20;;;;;;;14.10;100.00;96453.09;5011284;28;105147;-61
2022/10/14 07:56:56;;;;;;;6.33;5.70;;;;;;;14.29;100.00;96462.97;5027445;28;103328;-60
2022/10/14 07:59:24;;;;;;;3.53;3.20;;;;;;;14.36;100.00;96455.47;5030455;27;102334;-61
2022/10/14 08:01:53;;;;;;;2.93;2.10;;;;;;;14.59;100.00;96451.38;5028128;28;105239;-60
2022/10/14 08:04:20;;;;;;;2.10;2.00;;;;;;;14.61;100.00;96457.28;5028817;28;101953;-61
2022/10/14 08:06:47;;;;;;;1.50;1.40;;;;;;;14.51;100.00;96455.41;5028619;28;104994;-61
2022/10/14 08:09:17;;;;;;;1.43;1.40;;;;;;;14.51;100.00;96450.06;5029625;27;102623;-61
2022/10/14 08:11:44;;;;;;;1.70;1.60;;;;;;;14.62;100.00;96454.31;5029916;28;102216;-61
2022/10/14 08:14:12;;;;;;;2.40;1.57;;;;;;;14.92;100.00;96439.97;5028741;28;105065;-61
2022/10/14 08:16:46;;;;;;;1.47;1.37;;;;;;;15.15;100.00;96442.00;5031125;28;103714;-61
2022/10/14 08:19:18;;;;;;;1.57;1.30;;;;;;;15.26;100.00;96435.50;5028677;28;104584;-61
2022/10/14 08:21:49;;;;;;;1.57;1.10;;;;;;;15.14;100.00;96437.69;5027947;28;105015;-60
2022/10/14 08:24:26;;;;;;;1.67;1.10;;;;;;;15.40;100.00;96434.63;5028425;28;101947;-64
2022/10/14 08:26:57;;;;;;;1.10;1.10;;;;;;;15.47;100.00;96429.75;5029664;27;102283;-62
2022/10/14 08:29:26;;;;;;;1.10;1.10;;;;;;;15.63;100.00;96431.22;5027550;28;104683;-61
2022/10/14 08:31:54;;;;;;;1.77;0.90;;;;;;;15.75;100.00;96433.53;5028101;28;102261;-60
2022/10/14 08:34:23;;;;;;;1.97;1.03;;;;;;;15.91;100.00;96435.78;5028434;28;104986;-61
2022/10/14 08:37:21;;;;;;;1.50;1.07;;;;;;;16.20;100.00;96431.25;5045597;27;105432;-61
2022/10/14 08:39:50;;;;;;;3.20;1.10;;;;;;;16.41;100.00;96442.56;5011569;28;103569;-61
2022/10/14 08:42:35;;;;;;;1.20;1.10;;;;;;;16.35;100.00;96432.94;5011034;28;105656;-61
2022/10/14 08:45:08;;;;;;;2.23;0.90;;;;;;;16.27;100.00;96444.28;5011612;28;101948;-61
2022/10/14 08:47:56;;;;;;;3.40;1.20;;;;;;;16.25;100.00;96439.22;5011675;28;103618;-61
2022/10/14 08:50:42;;;;;;;1.50;1.10;;;;;;;16.32;100.00;96438.88;5010865;28;105457;-61
2022/10/14 08:53:13;;;;;;;2.20;0.93;;;;;;;16.43;100.00;96435.84;5011097;28;102226;-61
2022/10/14 08:55:46;;;;;;;1.13;1.03;;;;;;;16.72;100.00;96443.81;5014311;28;104797;-61
2022/10/14 08:58:16;;;;;;;1.53;1.10;;;;;;;16.75;100.00;96444.06;5031031;28;105793;-61
2022/10/14 09:00:48;;;;;;;1.63;1.00;;;;;;;16.82;100.00;96436.44;5034956;28;102009;-61
2022/10/14 09:03:20;;;;;;;0.83;0.83;;;;;;;16.88;100.00;96434.47;5030986;28;105016;-61
2022/10/14 09:06:24;;;;;;;0.67;0.63;;;;;;;16.91;100.00;96423.16;5031333;28;101925;-60
2022/10/14 09:08:55;;;;;;;2.90;2.33;;;;;;;16.80;100.00;96425.19;5032823;28;102492;-61
2022/10/14 09:11:24;;;;;;;1.67;1.53;;;;;;;17.19;100.00;96422.22;5032025;28;102682;-61
2022/10/14 09:13:56;;;;;;;1.33;0.70;;;;;;;17.25;100.00;96415.69;5032150;28;101907;-62
2022/10/14 09:16:35;;;;;;;1.60;0.90;;;;;;;17.46;100.00;96417.00;5031160;28;105221;-62
2022/10/14 09:19:04;;;;;;;1.40;1.30;;;;;;;17.40;100.00;96410.13;5030600;28;105116;-62
2022/10/14 09:21:37;;;;;;;3.53;1.30;;;;;;;17.19;100.00;96406.09;5030935;28;102262;-62
2022/10/14 09:24:15;;;;;;;1.97;0.90;;;;;;;17.48;100.00;96409.44;5033662;28;105619;-62
2022/10/14 09:26:50;;;;;;;1.27;0.90;;;;;;;17.43;100.00;96407.63;5030995;28;101866;-62
2022/10/14 09:29:24;;;;;;;1.00;0.90;;;;;;;17.17;100.00;96413.66;5031252;28;104830;-61
2022/10/14 09:31:52;;;;;;;1.33;1.13;;;;;;;17.13;100.00;96407.28;5030255;28;105339;-61
2022/10/14 09:34:25;;;;;;;1.90;1.30;;;;;;;17.50;100.00;96412.66;5030965;28;101939;-61
2022/10/14 09:37:32;;;;;;;2.60;1.20;;;;;;;17.69;100.00;96405.34;5030755;28;105261;-61
2022/10/14 09:40:03;;;;;;;3.57;1.00;;;;;;;17.37;100.00;96399.91;5029885;28;105546;-61
2022/10/14 09:42:42;;;;;;;1.30;1.07;;;;;;;17.62;100.00;96402.22;5030780;28;101822;-61
2022/10/14 09:45:12;;;;;;;1.50;0.83;;;;;;;17.86;100.00;96397.50;5030646;28;104053;-62
2022/10/14 09:47:53;;;;;;;1.13;1.03;;;;;;;17.84;100.00;96397.00;5033523;27;106165;-61
2022/10/14 09:50:30;;;;;;;1.70;0.80;;;;;;;18.12;100.00;96398.66;5030536;28;104914;-61
2022/10/14 09:53:03;;;;;;;4.03;1.00;;;;;;;18.05;100.00;96392.88;5029967;28;104039;-61
2022/10/14 09:55:31;;;;;;;2.50;0.93;;;;;;;18.35;100.00;96397.72;5031876;27;102017;-61
2022/10/14 10:01:24;;;;;;;0.60;0.60;;;;;;;18.76;100.00;96399.31;5030170;28;105380;-61
2022/10/14 10:03:53;;;;;;;1.53;0.90;;;;;;;19.09;100.00;96392.66;5032034;28;102011;-61
2022/10/14 10:06:52;;;;;;;1.07;0.90;;;;;;;19.36;100.00;96391.78;5030336;28;103773;-61
2022/10/14 10:09:20;;;;;;;0.80;0.80;;;;;;;19.54;100.00;96390.81;5029751;28;105394;-61
2022/10/14 10:11:47;;;;;;;0.70;0.70;;;;;;;19.50;100.00;96395.25;5033728;28;101910;-61
2022/10/14 10:14:17;;;;;;;1.90;0.70;;;;;;;19.66;100.00;96393.75;5029763;28;105444;-62
2022/10/14 10:17:18;;;;;;;1.30;0.83;;;;;;;19.91;100.00;96388.53;5030301;28;102047;-61
2022/10/14 10:19:50;;;;;;;0.93;0.90;;;;;;;20.04;100.00;96384.13;5030203;28;105600;-62
2022/10/14 10:22:57;;;;;;;0.90;0.90;;;;;;;19.54;100.00;96372.75;5029465;28;105867;-62
2022/10/14 10:25:27;;;;;;;2.50;0.70;;;;;;;19.87;100.00;96374.06;5030090;28;101918;-62
2022/10/14 10:28:18;;;;;;;0.80;0.80;;;;;;;19.92;100.00;96365.84;5031693;27;102242;-61
2022/10/14 10:30:59;;;;;;;1.03;0.80;;;;;;;19.82;100.00;96370.69;5029213;28;104402;-61
2022/10/14 10:33:39;;;;;;;0.83;0.70;;;;;;;19.91;100.00;96366.13;5029843;28;101982;-61
2022/10/14 10:36:57;;;;;;;0.70;0.70;;;;;;;20.00;100.00;96365.06;5032896;28;105447;-62
2022/10/14 10:39:37;;;;;;;1.00;0.70;;;;;;;20.09;100.00;96362.44;5029843;28;101925;-61
2022/10/14 10:42:15;;;;;;;0.80;0.80;;;;;;;20.07;100.00;96364.66;5029931;28;104902;-61
2022/10/14 10:44:58;;;;;;;1.50;0.70;;;;;;;19.06;100.00;96360.91;5029136;28;105069;-63
2022/10/14 10:47:52;;;;;;;1.53;0.50;;;;;;;19.44;100.00;96350.59;5029741;28;102116;-67
2022/10/14 10:50:56;;;;;;;0.73;0.50;;;;;;;19.39;100.00;96348.03;5029816;28;105898;-62
2022/10/14 10:53:43;;;;;;;0.70;0.50;;;;;;;19.38;100.00;96341.84;5028525;28;105503;-62
2022/10/14 10:56:19;;;;;;;0.87;0.60;;;;;;;19.96;100.00;96336.31;5031271;28;101750;-62
2022/10/14 10:59:05;;;;;;;0.67;0.60;;;;;;;20.52;100.00;96329.09;5033678;27;102331;-62
2022/10/14 11:01:50;;;;;;;0.77;0.40;;;;;;;20.83;100.00;96329.00;5029509;28;101858;-62
2022/10/14 11:04:29;;;;;;;0.53;0.50;;;;;;;21.18;100.00;96328.72;5031125;27;102392;-62
2022/10/14 11:13:37;;;;;;;0.40;0.40;;;;;;;21.11;100.00;96306.78;5009315;28;105640;-62
2022/10/14 11:16:10;;;;;;;0.70;0.70;;;;;;;21.42;100.00;96314.72;5010154;28;102640;-62
2022/10/14 11:18:47;;;;;;;0.40;0.40;;;;;;;20.91;100.00;96298.47;5010692;28;101765;-62
2022/10/14 11:21:26;;;;;;;0.60;0.60;;;;;;;21.74;100.00;96308.78;5010784;28;102359;-62
2022/10/14 11:24:05;;;;;;;0.87;0.70;;;;;;;21.72;100.00;96309.09;4995374;28;106149;-62
2022/10/14 11:27:07;;;;;;;1.03;0.50;;;;;;;21.97;100.00;96304.72;5009200;28;105176;-62
2022/10/14 11:30:12;;;;;;;0.50;0.40;;;;;;;22.02;100.00;96301.84;5019993;28;102508;-62
2022/10/14 11:32:49;;;;;;;2.17;0.50;;;;;;;21.77;100.00;96295.41;5029000;28;102208;-62
2022/10/14 11:35:25;;;;;;;0.67;0.67;;;;;;;22.14;100.00;96288.41;5063010;27;104883;-62
2022/10/14 11:38:08;;;;;;;0.70;0.60;;;;;;;21.42;99.96;96284.94;5027899;28;106417;-62
2022/10/14 11:40:43;;;;;;;0.70;0.50;;;;;;;21.43;100.00;96273.00;5028703;28;102024;-62
2022/10/14 11:43:22;;;;;;;0.77;0.60;;;;;;;21.93;100.00;96282.13;5028906;28;105519;-62
2022/10/14 11:46:29;;;;;;;1.27;0.60;;;;;;;22.21;100.00;96275.94;5028598;28;105092;-61
2022/10/14 11:48:59;;;;;;;0.60;0.50;;;;;;;22.33;100.00;96270.63;5032515;28;101821;-60
2022/10/14 11:51:53;;;;;;;0.40;0.40;;;;;;;22.25;98.91;96262.53;5027897;28;105331;-61
2022/10/14 11:54:28;;;;;;;0.60;0.50;;;;;;;22.58;100.00;96255.34;5016563;28;101933;-61
2022/10/14 11:57:02;;;;;;;0.40;0.40;;;;;;;22.48;100.00;96261.97;5030557;28;102477;-61
2022/10/14 11:59:38;;;;;;;1.10;0.50;;;;;;;22.38;100.00;96261.50;5029622;28;102835;-61
2022/10/14 12:02:19;;;;;;;0.40;0.40;;;;;;;21.08;100.00;96250.63;5030373;27;102018;-61